createdAt,value
2023-05-01T04:20:31.620Z,41
2023-05-01T04:25:35.380Z,41
2023-05-01T04:30:42.098Z,41
2023-05-01T04:35:45.754Z,41
2023-05-01T04:40:49.466Z,41
2023-05-01T04:45:53.861Z,41
2023-05-01T04:50:57.526Z,41
2023-05-01T04:55:59.743Z,41
2023-05-01T05:01:01.904Z,41
2023-05-01T05:06:08.826Z,41
2023-05-01T05:11:11.668Z,41
2023-05-01T05:16:15.493Z,41
2023-05-01T05:21:17.559Z,41
2023-05-01T05:26:21.169Z,41
2023-05-01T05:31:24.111Z,42
2023-05-01T05:36:27.006Z,42
2023-05-01T05:41:29.105Z,42
2023-05-01T05:46:32.267Z,42
2023-05-01T05:51:35.085Z,42
2023-05-01T05:56:37.168Z,42
2023-05-01T06:01:43.966Z,42
2023-05-01T06:06:46.201Z,42
2023-05-01T06:11:51.546Z,42
2023-05-01T06:16:53.737Z,42
2023-05-01T06:21:55.895Z,42
2023-05-01T06:26:59.135Z,42
2023-05-01T06:32:00.430Z,42
2023-05-01T06:37:03.433Z,42
2023-05-01T06:42:08.708Z,42
2023-05-01T06:47:11.782Z,42
2023-05-01T06:52:18.343Z,43
2023-05-01T06:57:20.594Z,43
2023-05-01T07:02:22.741Z,43
2023-05-01T07:07:29.711Z,44
2023-05-01T07:12:33.398Z,45
2023-05-01T07:17:35.548Z,46
2023-05-01T07:22:40.005Z,47
2023-05-01T07:27:42.794Z,48
2023-05-01T07:32:44.932Z,48
2023-05-01T07:37:47.209Z,48
2023-05-01T07:42:49.204Z,47
2023-05-01T07:47:51.377Z,46
2023-05-01T07:52:58.300Z,46
2023-05-01T07:58:00.431Z,45
2023-05-01T08:03:02.695Z,44
2023-05-01T08:08:12.245Z,44
2023-05-01T08:13:14.328Z,43
2023-05-01T08:18:17.953Z,43
2023-05-01T08:23:21.634Z,43
2023-05-01T08:28:24.646Z,43
2023-05-01T08:33:26.715Z,43
2023-05-01T08:38:29.031Z,42
2023-05-01T08:43:31.132Z,41
2023-05-01T08:48:35.535Z,40
2023-05-01T08:53:37.848Z,39
2023-05-01T08:58:39.932Z,38
2023-05-01T09:03:46.976Z,38
2023-05-01T09:08:50.003Z,38
2023-05-01T09:13:52.063Z,38
2023-05-01T09:18:54.268Z,38
2023-05-01T09:23:56.443Z,38
2023-05-01T09:28:58.695Z,39
2023-05-01T09:34:00.861Z,40
2023-05-01T09:39:03.046Z,41
2023-05-01T09:44:06.656Z,41
2023-05-01T09:49:08.829Z,41
2023-05-01T09:54:16.305Z,42
2023-05-01T09:59:19.935Z,42
2023-05-01T10:04:22.798Z,42
2023-05-01T10:09:24.982Z,42
2023-05-01T10:14:27.292Z,43
2023-05-01T10:19:29.484Z,43
2023-05-01T10:24:31.588Z,43
2023-05-01T10:29:34.481Z,43
2023-05-01T10:34:36.603Z,43
2023-05-01T10:39:38.923Z,43
2023-05-01T10:44:40.959Z,43
2023-05-01T10:49:44.626Z,44
2023-05-01T10:54:46.857Z,44
2023-05-01T10:59:48.899Z,44
2023-05-01T11:04:52.115Z,44
2023-05-01T11:10:04.114Z,44
2023-05-01T11:15:03.926Z,44
2023-05-01T11:20:06.768Z,44
2023-05-01T11:25:09.049Z,44
2023-05-01T11:30:13.469Z,44
2023-05-01T11:35:15.579Z,44
2023-05-01T11:40:17.828Z,44
2023-05-01T11:45:21.441Z,44
2023-05-01T11:50:29.444Z,44
2023-05-01T11:55:31.533Z,44
2023-05-01T12:00:34.560Z,44
2023-05-01T12:05:36.661Z,43
2023-05-01T12:10:38.983Z,43
2023-05-01T12:15:41.030Z,43
2023-05-01T12:20:50.862Z,43
2023-05-01T12:25:52.969Z,43
2023-05-01T12:30:55.826Z,43
2023-05-01T12:35:57.957Z,43
2023-05-01T12:41:04.714Z,43
2023-05-01T12:46:07.121Z,43
2023-05-01T12:51:09.829Z,43
2023-05-01T12:56:12.860Z,43
2023-05-01T13:01:15.088Z,44
2023-05-01T13:06:18.644Z,44
2023-05-01T13:11:25.415Z,44
2023-05-01T13:16:27.591Z,44
2023-05-01T13:21:31.162Z,44
2023-05-01T13:26:34.139Z,44
2023-05-01T13:31:36.279Z,43
2023-05-01T13:36:38.501Z,42
2023-05-01T13:41:40.894Z,42
2023-05-01T13:46:42.937Z,41
2023-05-01T13:51:48.355Z,41
2023-05-01T13:56:55.359Z,41
2023-05-01T14:01:57.593Z,41
2023-05-01T14:06:59.770Z,41
2023-05-01T14:12:02.029Z,42
2023-05-01T14:17:06.581Z,42
2023-05-01T14:22:08.661Z,42
2023-05-01T14:27:15.438Z,42
2023-05-01T14:32:17.747Z,43
2023-05-01T14:37:19.849Z,43
2023-05-01T14:42:24.468Z,43
2023-05-01T14:47:26.637Z,43
2023-05-01T14:52:29.677Z,43
2023-05-01T14:57:32.816Z,43
2023-05-01T15:02:35.196Z,43
2023-05-01T15:07:40.269Z,43
2023-05-01T15:12:44.037Z,43
2023-05-01T15:17:47.674Z,43
2023-05-01T15:22:50.536Z,44
2023-05-01T15:27:52.833Z,44
2023-05-01T15:32:59.811Z,44
2023-05-01T15:38:03.354Z,44
2023-05-01T15:43:08.094Z,44
2023-05-01T15:48:12.647Z,43
2023-05-01T15:53:16.300Z,43
2023-05-01T15:58:18.516Z,43
2023-05-01T16:03:20.699Z,43
2023-05-01T16:08:22.715Z,43
2023-05-01T16:13:27.138Z,43
2023-05-01T16:18:29.229Z,43
2023-05-01T16:23:32.111Z,43
2023-05-01T16:28:36.531Z,43
2023-05-01T16:33:39.534Z,43
2023-05-01T16:38:41.607Z,43
2023-05-01T16:43:43.894Z,43
2023-05-01T16:48:48.362Z,42
2023-05-01T16:53:55.186Z,42
2023-05-01T16:58:57.475Z,41
2023-05-01T17:04:02.682Z,41
2023-05-01T17:09:07.166Z,40
2023-05-01T17:14:09.328Z,40
2023-05-01T17:19:12.204Z,40
2023-05-01T17:24:14.331Z,40
2023-05-01T17:29:18.106Z,40
2023-05-01T17:34:22.605Z,40
2023-05-01T17:39:24.691Z,39
2023-05-01T17:44:27.055Z,39
2023-05-01T17:49:29.228Z,40
2023-05-01T17:54:31.350Z,40
2023-05-01T17:59:34.260Z,40
2023-05-01T18:04:38.059Z,41
2023-05-01T18:09:40.179Z,41
2023-05-01T18:14:43.886Z,41
2023-05-01T18:19:52.118Z,41
2023-05-01T18:24:55.738Z,41
2023-05-01T18:30:02.581Z,41
2023-05-01T18:35:04.707Z,41
2023-05-01T18:40:07.005Z,41
2023-05-01T18:45:10.003Z,41
2023-05-01T18:50:13.615Z,40
2023-05-01T18:55:21.976Z,40
2023-05-01T19:00:24.119Z,40
2023-05-01T19:05:27.823Z,40
2023-05-01T19:10:29.880Z,40
2023-05-01T19:15:32.977Z,40
2023-05-01T19:20:35.808Z,40
2023-05-01T19:25:38.688Z,40
2023-05-01T19:30:40.851Z,40
2023-05-01T19:35:43.232Z,40
2023-05-01T19:40:45.330Z,40
2023-05-01T19:45:48.345Z,40
2023-05-01T19:50:51.212Z,40
2023-05-01T19:55:53.441Z,40
2023-05-01T20:01:00.249Z,40
2023-05-01T20:06:02.597Z,40
2023-05-01T20:11:04.604Z,40
2023-05-01T20:16:07.004Z,40
2023-05-01T20:21:09.994Z,40
2023-05-01T20:26:13.635Z,40
2023-05-01T20:31:17.670Z,40
2023-05-01T20:36:19.554Z,40
2023-05-01T20:41:22.487Z,40
2023-05-01T20:46:25.490Z,40
2023-05-01T20:51:27.702Z,41
2023-05-01T20:56:29.834Z,41
2023-05-01T21:01:32.126Z,41
2023-05-01T21:06:34.249Z,41
2023-05-01T21:11:36.456Z,41
2023-05-01T21:16:39.466Z,41
2023-05-01T21:21:42.199Z,41
2023-05-01T21:26:46.583Z,41
2023-05-01T21:31:48.824Z,41
2023-05-01T21:36:51.619Z,41
2023-05-01T21:41:54.028Z,41
2023-05-01T21:46:56.073Z,41
2023-05-01T21:52:02.797Z,41
2023-05-01T21:57:05.032Z,41
2023-05-01T22:02:07.330Z,41
2023-05-01T22:07:11.643Z,41
2023-05-01T22:12:17.056Z,41
2023-05-01T22:17:19.219Z,41
2023-05-01T22:22:21.346Z,41
2023-05-01T22:27:23.664Z,41
2023-05-01T22:32:26.617Z,42
2023-05-01T22:37:33.409Z,42
2023-05-01T22:42:40.373Z,42
2023-05-01T22:47:43.324Z,42
2023-05-01T22:52:47.654Z,42
2023-05-01T22:57:49.844Z,42
2023-05-01T23:02:52.083Z,42
2023-05-01T23:07:54.189Z,42
2023-05-01T23:12:56.281Z,42
